Terminal Aerodrome Forecast
Issued by NWS Central Illinois

Home | Current Version | Previous Version | Text Only | Print | Product List | Glossary On
Versions: 1 2 3 4 5 6 7 8 9 10 11 12 13 14 15 16 17 18 19 20 21 22 23 24
000
FTUS43 KILX 251100
TAFSPI
TAF
KSPI 251129Z 2512/2612 27004KT 6SM BR OVC012
      TEMPO 2512/2516 3SM BR BKN008
     FM251700 31007KT P6SM SCT015
     FM251800 31008KT P6SM SKC
     FM252300 33004KT P6SM SKC=

USA.gov is the U.S. government's official web portal to all federal, state and local government web resources and services.